sensor_id;sensor_type;location;lat;lon;timestamp;pressure;altitude;pressure_sealevel;temperature;humidity
12215;BME280;6170;42.206;24.142;2022-08-21T00:00:05;98223.34;;;22.13;83.09
12215;BME280;6170;42.206;24.142;2022-08-21T00:02:33;98219.63;;;22.04;83.54
12215;BME280;6170;42.206;24.142;2022-08-21T00:05:00;98218.13;;;21.88;84.49
12215;BME280;6170;42.206;24.142;2022-08-21T00:07:27;98219.00;;;22.12;83.68
12215;BME280;6170;42.206;24.142;2022-08-21T00:09:54;98227.03;;;22.22;83.17
12215;BME280;6170;42.206;24.142;2022-08-21T00:12:22;98231.78;;;22.17;83.32
12215;BME280;6170;42.206;24.142;2022-08-21T00:14:49;98238.66;;;22.33;82.58
12215;BME280;6170;42.206;24.142;2022-08-21T00:17:16;98226.47;;;22.02;83.27
12215;BME280;6170;42.206;24.142;2022-08-21T00:19:43;98232.69;;;22.07;83.56
12215;BME280;6170;42.206;24.142;2022-08-21T00:22:10;98224.28;;;22.04;83.56
12215;BME280;6170;42.206;24.142;2022-08-21T00:24:36;98210.06;;;22.07;82.88
12215;BME280;6170;42.206;24.142;2022-08-21T00:27:04;98218.47;;;22.10;82.57
12215;BME280;6170;42.206;24.142;2022-08-21T00:29:32;98208.53;;;21.95;83.62
12215;BME280;6170;42.206;24.142;2022-08-21T00:31:59;98204.59;;;21.78;84.51
12215;BME280;6170;42.206;24.142;2022-08-21T00:34:25;98196.13;;;21.79;83.71
12215;BME280;6170;42.206;24.142;2022-08-21T00:36:53;98205.19;;;21.75;83.17
12215;BME280;6170;42.206;24.142;2022-08-21T00:39:20;98213.06;;;21.47;83.61
12215;BME280;6170;42.206;24.142;2022-08-21T00:41:46;98211.63;;;21.26;85.86
12215;BME280;6170;42.206;24.142;2022-08-21T00:44:14;98214.38;;;21.55;84.23
12215;BME280;6170;42.206;24.142;2022-08-21T00:46:43;98203.41;;;21.60;84.06
12215;BME280;6170;42.206;24.142;2022-08-21T00:49:10;98202.63;;;21.83;83.35
12215;BME280;6170;42.206;24.142;2022-08-21T00:51:42;98197.00;;;22.04;82.26
12215;BME280;6170;42.206;24.142;2022-08-21T00:54:10;98198.75;;;21.94;82.75
12215;BME280;6170;42.206;24.142;2022-08-21T00:56:38;98207.03;;;22.08;82.18
12215;BME280;6170;42.206;24.142;2022-08-21T00:59:06;98204.47;;;22.17;81.28
12215;BME280;6170;42.206;24.142;2022-08-21T01:01:33;98217.47;;;22.25;81.34
12215;BME280;6170;42.206;24.142;2022-08-21T01:04:02;98215.09;;;22.18;81.86
12215;BME280;6170;42.206;24.142;2022-08-21T01:06:29;98220.03;;;22.16;81.71
12215;BME280;6170;42.206;24.142;2022-08-21T01:08:56;98229.16;;;22.30;81.12
12215;BME280;6170;42.206;24.142;2022-08-21T01:11:23;98227.97;;;22.36;80.89
12215;BME280;6170;42.206;24.142;2022-08-21T01:13:49;98224.03;;;22.48;80.27
12215;BME280;6170;42.206;24.142;2022-08-21T01:16:19;98219.94;;;22.45;80.97
12215;BME280;6170;42.206;24.142;2022-08-21T01:18:47;98225.59;;;22.30;81.17
12215;BME280;6170;42.206;24.142;2022-08-21T01:21:19;98240.63;;;22.27;81.31
12215;BME280;6170;42.206;24.142;2022-08-21T01:23:49;98247.47;;;22.01;81.94
12215;BME280;6170;42.206;24.142;2022-08-21T01:26:20;98254.94;;;21.90;82.68
12215;BME280;6170;42.206;24.142;2022-08-21T01:28:54;98261.72;;;21.98;82.88
12215;BME280;6170;42.206;24.142;2022-08-21T01:31:24;98253.44;;;21.74;84.28
12215;BME280;6170;42.206;24.142;2022-08-21T01:33:51;98243.22;;;21.90;83.97
12215;BME280;6170;42.206;24.142;2022-08-21T01:36:20;98241.69;;;21.79;84.76
12215;BME280;6170;42.206;24.142;2022-08-21T01:38:47;98232.31;;;21.90;84.44
12215;BME280;6170;42.206;24.142;2022-08-21T01:41:15;98235.84;;;21.90;83.46
12215;BME280;6170;42.206;24.142;2022-08-21T01:43:42;98231.78;;;22.17;82.42
12215;BME280;6170;42.206;24.142;2022-08-21T01:46:11;98225.56;;;22.11;82.18
12215;BME280;6170;42.206;24.142;2022-08-21T01:48:38;98217.31;;;22.16;81.93
12215;BME280;6170;42.206;24.142;2022-08-21T01:51:05;98213.94;;;22.24;81.71
12215;BME280;6170;42.206;24.142;2022-08-21T01:53:34;98204.66;;;22.25;81.31
12215;BME280;6170;42.206;24.142;2022-08-21T01:56:03;98211.88;;;22.35;81.50
12215;BME280;6170;42.206;24.142;2022-08-21T01:58:30;98213.00;;;22.34;81.97
12215;BME280;6170;42.206;24.142;2022-08-21T02:00:58;98208.09;;;22.31;81.75
12215;BME280;6170;42.206;24.142;2022-08-21T02:03:27;98203.69;;;22.35;81.67
12215;BME280;6170;42.206;24.142;2022-08-21T02:05:53;98196.03;;;22.13;82.91
12215;BME280;6170;42.206;24.142;2022-08-21T02:08:20;98196.75;;;22.24;81.98
12215;BME280;6170;42.206;24.142;2022-08-21T02:10:49;98200.06;;;22.21;82.25
12215;BME280;6170;42.206;24.142;2022-08-21T02:13:17;98214.59;;;22.35;82.06
12215;BME280;6170;42.206;24.142;2022-08-21T02:15:44;98216.09;;;22.04;83.57
12215;BME280;6170;42.206;24.142;2022-08-21T02:18:11;98230.25;;;22.29;82.47
12215;BME280;6170;42.206;24.142;2022-08-21T02:20:40;98235.56;;;22.39;82.21
12215;BME280;6170;42.206;24.142;2022-08-21T02:23:08;98228.50;;;22.38;82.31
12215;BME280;6170;42.206;24.142;2022-08-21T02:25:36;98226.00;;;22.18;83.20
12215;BME280;6170;42.206;24.142;2022-08-21T02:28:07;98221.25;;;21.76;85.40
12215;BME280;6170;42.206;24.142;2022-08-21T02:30:37;98232.69;;;21.78;84.94
12215;BME280;6170;42.206;24.142;2022-08-21T02:33:04;98234.13;;;22.00;84.08
12215;BME280;6170;42.206;24.142;2022-08-21T02:35:31;98232.66;;;22.12;83.73
12215;BME280;6170;42.206;24.142;2022-08-21T02:38:00;98235.03;;;21.90;85.23
12215;BME280;6170;42.206;24.142;2022-08-21T02:40:30;98238.28;;;21.92;86.05
12215;BME280;6170;42.206;24.142;2022-08-21T02:42:57;98229.13;;;21.78;86.05
12215;BME280;6170;42.206;24.142;2022-08-21T02:45:26;98233.34;;;21.99;85.59
12215;BME280;6170;42.206;24.142;2022-08-21T02:47:56;98236.75;;;22.10;85.48
12215;BME280;6170;42.206;24.142;2022-08-21T02:50:26;98247.50;;;22.25;84.17
12215;BME280;6170;42.206;24.142;2022-08-21T02:52:54;98244.06;;;22.14;84.39
12215;BME280;6170;42.206;24.142;2022-08-21T02:55:24;98254.53;;;22.07;83.90
12215;BME280;6170;42.206;24.142;2022-08-21T02:57:52;98256.84;;;21.61;85.99
12215;BME280;6170;42.206;24.142;2022-08-21T03:00:19;98266.25;;;21.74;86.48
12215;BME280;6170;42.206;24.142;2022-08-21T03:02:48;98264.50;;;21.88;85.32
12215;BME280;6170;42.206;24.142;2022-08-21T03:05:16;98264.31;;;21.50;86.88
12215;BME280;6170;42.206;24.142;2022-08-21T03:07:44;98270.97;;;21.68;86.36
12215;BME280;6170;42.206;24.142;2022-08-21T03:10:11;98268.44;;;21.77;85.47
12215;BME280;6170;42.206;24.142;2022-08-21T03:12:38;98269.69;;;21.89;85.35
12215;BME280;6170;42.206;24.142;2022-08-21T03:15:08;98261.66;;;22.03;84.98
12215;BME280;6170;42.206;24.142;2022-08-21T03:17:36;98256.03;;;21.94;85.14
12215;BME280;6170;42.206;24.142;2022-08-21T03:20:05;98257.06;;;21.99;84.57
12215;BME280;6170;42.206;24.142;2022-08-21T03:22:32;98265.38;;;22.12;83.92
12215;BME280;6170;42.206;24.142;2022-08-21T03:24:59;98268.44;;;22.06;84.86
12215;BME280;6170;42.206;24.142;2022-08-21T03:27:27;98267.75;;;22.19;84.42
12215;BME280;6170;42.206;24.142;2022-08-21T03:29:56;98268.94;;;22.13;84.12
12215;BME280;6170;42.206;24.142;2022-08-21T03:32:23;98270.47;;;22.19;83.63
12215;BME280;6170;42.206;24.142;2022-08-21T03:34:50;98273.50;;;22.17;82.93
12215;BME280;6170;42.206;24.142;2022-08-21T03:37:18;98274.25;;;22.23;83.52
12215;BME280;6170;42.206;24.142;2022-08-21T03:39:45;98276.94;;;22.28;83.62
12215;BME280;6170;42.206;24.142;2022-08-21T03:42:12;98278.38;;;22.20;84.20
12215;BME280;6170;42.206;24.142;2022-08-21T03:44:39;98279.19;;;22.21;84.68
12215;BME280;6170;42.206;24.142;2022-08-21T03:47:06;98266.31;;;22.03;85.42
12215;BME280;6170;42.206;24.142;2022-08-21T03:49:33;98267.97;;;22.22;84.67
12215;BME280;6170;42.206;24.142;2022-08-21T03:52:00;98272.91;;;21.97;84.52
12215;BME280;6170;42.206;24.142;2022-08-21T03:54:28;98273.84;;;22.11;84.55
12215;BME280;6170;42.206;24.142;2022-08-21T03:56:55;98275.84;;;22.00;84.54
12215;BME280;6170;42.206;24.142;2022-08-21T03:59:22;98274.38;;;22.13;84.06
12215;BME280;6170;42.206;24.142;2022-08-21T04:01:53;98280.22;;;22.01;84.69
12215;BME280;6170;42.206;24.142;2022-08-21T04:04:21;98273.91;;;22.06;84.30
12215;BME280;6170;42.206;24.142;2022-08-21T04:06:48;98277.41;;;22.11;83.85
12215;BME280;6170;42.206;24.142;2022-08-21T04:09:15;98276.94;;;22.28;83.12
12215;BME280;6170;42.206;24.142;2022-08-21T04:11:43;98274.03;;;22.19;83.24
12215;BME280;6170;42.206;24.142;2022-08-21T04:14:10;98270.72;;;22.22;83.42
12215;BME280;6170;42.206;24.142;2022-08-21T04:16:37;98281.56;;;22.27;83.55
12215;BME280;6170;42.206;24.142;2022-08-21T04:19:04;98267.84;;;22.09;84.37
12215;BME280;6170;42.206;24.142;2022-08-21T04:21:31;98282.03;;;22.11;84.51
12215;BME280;6170;42.206;24.142;2022-08-21T04:23:58;98269.94;;;21.93;85.33
12215;BME280;6170;42.206;24.142;2022-08-21T04:26:25;98273.06;;;21.76;85.69
12215;BME280;6170;42.206;24.142;2022-08-21T04:28:54;98279.19;;;21.92;85.74
12215;BME280;6170;42.206;24.142;2022-08-21T04:31:22;98274.94;;;22.10;84.39
12215;BME280;6170;42.206;24.142;2022-08-21T04:33:50;98277.53;;;22.25;84.30
12215;BME280;6170;42.206;24.142;2022-08-21T04:36:17;98264.34;;;22.08;84.93
12215;BME280;6170;42.206;24.142;2022-08-21T04:38:44;98270.19;;;22.20;84.83
12215;BME280;6170;42.206;24.142;2022-08-21T04:41:11;98275.34;;;22.22;84.35
12215;BME280;6170;42.206;24.142;2022-08-21T04:43:37;98269.97;;;22.17;85.43
12215;BME280;6170;42.206;24.142;2022-08-21T04:46:06;98265.41;;;22.31;84.66
12215;BME280;6170;42.206;24.142;2022-08-21T04:48:33;98269.50;;;22.33;84.43
12215;BME280;6170;42.206;24.142;2022-08-21T04:51:02;98259.41;;;22.34;84.34
12215;BME280;6170;42.206;24.142;2022-08-21T04:53:36;98266.13;;;22.18;84.97
12215;BME280;6170;42.206;24.142;2022-08-21T04:56:05;98276.94;;;22.28;84.43
12215;BME280;6170;42.206;24.142;2022-08-21T04:58:34;98268.31;;;22.39;83.69
12215;BME280;6170;42.206;24.142;2022-08-21T05:01:03;98269.50;;;22.33;84.58
12215;BME280;6170;42.206;24.142;2022-08-21T05:03:34;98265.91;;;22.38;83.73
12215;BME280;6170;42.206;24.142;2022-08-21T05:06:03;98261.59;;;22.56;83.08
12215;BME280;6170;42.206;24.142;2022-08-21T05:08:31;98259.69;;;22.56;83.07
12215;BME280;6170;42.206;24.142;2022-08-21T05:10:59;98262.63;;;22.60;83.37
12215;BME280;6170;42.206;24.142;2022-08-21T05:13:26;98266.50;;;22.54;84.16
12215;BME280;6170;42.206;24.142;2022-08-21T05:15:53;98257.81;;;22.52;84.58
12215;BME280;6170;42.206;24.142;2022-08-21T05:18:20;98257.44;;;22.58;84.00
12215;BME280;6170;42.206;24.142;2022-08-21T05:20:48;98260.66;;;22.42;84.68
12215;BME280;6170;42.206;24.142;2022-08-21T05:23:16;98257.91;;;22.65;83.80
12215;BME280;6170;42.206;24.142;2022-08-21T05:25:43;98252.81;;;22.35;84.62
12215;BME280;6170;42.206;24.142;2022-08-21T05:28:10;98248.97;;;22.60;84.38
12215;BME280;6170;42.206;24.142;2022-08-21T05:30:38;98259.84;;;22.65;83.65
12215;BME280;6170;42.206;24.142;2022-08-21T05:33:06;98257.13;;;22.41;83.83
12215;BME280;6170;42.206;24.142;2022-08-21T05:35:33;98261.22;;;22.62;83.84
12215;BME280;6170;42.206;24.142;2022-08-21T05:38:02;98254.72;;;22.58;83.49
12215;BME280;6170;42.206;24.142;2022-08-21T05:40:29;98253.56;;;22.40;84.87
12215;BME280;6170;42.206;24.142;2022-08-21T05:42:56;98262.34;;;22.37;85.01
12215;BME280;6170;42.206;24.142;2022-08-21T05:45:26;98258.03;;;22.55;83.40
12215;BME280;6170;42.206;24.142;2022-08-21T05:47:53;98257.91;;;22.65;82.53
12215;BME280;6170;42.206;24.142;2022-08-21T05:50:20;98262.25;;;22.66;82.68
12215;BME280;6170;42.206;24.142;2022-08-21T05:52:48;98258.69;;;22.47;83.91
12215;BME280;6170;42.206;24.142;2022-08-21T05:55:16;98263.22;;;22.57;83.67
12215;BME280;6170;42.206;24.142;2022-08-21T05:57:43;98264.81;;;22.58;83.82
12215;BME280;6170;42.206;24.142;2022-08-21T06:00:11;98259.97;;;22.55;84.07
12215;BME280;6170;42.206;24.142;2022-08-21T06:02:38;98255.59;;;22.54;83.79
12215;BME280;6170;42.206;24.142;2022-08-21T06:05:06;98258.13;;;22.69;83.64
12215;BME280;6170;42.206;24.142;2022-08-21T06:07:33;98262.97;;;22.77;83.73
12215;BME280;6170;42.206;24.142;2022-08-21T06:10:00;98250.56;;;22.84;83.42
12215;BME280;6170;42.206;24.142;2022-08-21T06:12:28;98260.09;;;22.87;82.96
12215;BME280;6170;42.206;24.142;2022-08-21T06:14:55;98262.19;;;22.95;82.63
12215;BME280;6170;42.206;24.142;2022-08-21T06:17:22;98268.13;;;22.97;82.55
12215;BME280;6170;42.206;24.142;2022-08-21T06:19:51;98260.47;;;22.99;82.11
12215;BME280;6170;42.206;24.142;2022-08-21T06:22:17;98262.47;;;22.94;82.33
12215;BME280;6170;42.206;24.142;2022-08-21T06:24:44;98271.41;;;23.18;82.08
12215;BME280;6170;42.206;24.142;2022-08-21T06:27:11;98271.16;;;23.33;82.99
12215;BME280;6170;42.206;24.142;2022-08-21T06:29:39;98270.59;;;23.36;83.52
12215;BME280;6170;42.206;24.142;2022-08-21T06:32:06;98249.34;;;23.14;83.70
12215;BME280;6170;42.206;24.142;2022-08-21T06:34:36;98259.34;;;23.38;82.73
12215;BME280;6170;42.206;24.142;2022-08-21T06:37:03;98264.19;;;23.59;80.68
12215;BME280;6170;42.206;24.142;2022-08-21T06:39:31;98256.84;;;23.73;80.65
12215;BME280;6170;42.206;24.142;2022-08-21T06:41:58;98259.69;;;23.82;80.89
12215;BME280;6170;42.206;24.142;2022-08-21T06:44:25;98269.84;;;23.95;78.85
12215;BME280;6170;42.206;24.142;2022-08-21T06:46:53;98254.28;;;24.09;78.31
12215;BME280;6170;42.206;24.142;2022-08-21T06:49:20;98258.84;;;24.14;78.49
12215;BME280;6170;42.206;24.142;2022-08-21T06:51:47;98267.63;;;23.84;80.17
12215;BME280;6170;42.206;24.142;2022-08-21T06:54:14;98260.31;;;23.79;80.40
12215;BME280;6170;42.206;24.142;2022-08-21T06:56:41;98268.56;;;23.93;81.10
12215;BME280;6170;42.206;24.142;2022-08-21T06:59:07;98268.56;;;24.06;78.40
12215;BME280;6170;42.206;24.142;2022-08-21T07:01:34;98268.84;;;23.91;79.02
12215;BME280;6170;42.206;24.142;2022-08-21T07:04:03;98268.78;;;24.10;77.69
12215;BME280;6170;42.206;24.142;2022-08-21T07:06:30;98264.38;;;23.95;77.88
12215;BME280;6170;42.206;24.142;2022-08-21T07:08:57;98260.75;;;24.13;77.76
12215;BME280;6170;42.206;24.142;2022-08-21T07:11:24;98272.75;;;23.71;78.85
12215;BME280;6170;42.206;24.142;2022-08-21T07:13:51;98262.56;;;24.04;78.03
12215;BME280;6170;42.206;24.142;2022-08-21T07:16:19;98274.22;;;23.96;77.97
12215;BME280;6170;42.206;24.142;2022-08-21T07:18:46;98271.53;;;23.78;77.95
12215;BME280;6170;42.206;24.142;2022-08-21T07:21:15;98279.09;;;23.99;77.81
12215;BME280;6170;42.206;24.142;2022-08-21T07:23:44;98284.41;;;23.77;77.12
12215;BME280;6170;42.206;24.142;2022-08-21T07:26:12;98270.81;;;23.58;77.51
12215;BME280;6170;42.206;24.142;2022-08-21T07:28:40;98278.53;;;23.70;77.19
12215;BME280;6170;42.206;24.142;2022-08-21T07:31:09;98275.19;;;23.73;77.61
12215;BME280;6170;42.206;24.142;2022-08-21T07:33:39;98277.34;;;23.76;77.51
12215;BME280;6170;42.206;24.142;2022-08-21T07:36:06;98274.00;;;23.79;77.48
12215;BME280;6170;42.206;24.142;2022-08-21T07:38:35;98276.97;;;23.64;79.28
12215;BME280;6170;42.206;24.142;2022-08-21T07:41:07;98278.59;;;23.65;79.97
12215;BME280;6170;42.206;24.142;2022-08-21T07:43:37;98270.22;;;23.75;79.41
12215;BME280;6170;42.206;24.142;2022-08-21T07:46:04;98272.56;;;23.82;79.21
12215;BME280;6170;42.206;24.142;2022-08-21T07:48:31;98263.81;;;23.98;79.07
12215;BME280;6170;42.206;24.142;2022-08-21T07:50:58;98263.47;;;23.86;78.44
12215;BME280;6170;42.206;24.142;2022-08-21T07:53:29;98268.31;;;23.76;78.27
12215;BME280;6170;42.206;24.142;2022-08-21T07:55:58;98263.22;;;23.69;79.32
12215;BME280;6170;42.206;24.142;2022-08-21T07:58:25;98260.81;;;23.81;79.43
12215;BME280;6170;42.206;24.142;2022-08-21T08:00:52;98250.91;;;23.85;79.42
12215;BME280;6170;42.206;24.142;2022-08-21T08:03:18;98244.97;;;23.64;80.69
12215;BME280;6170;42.206;24.142;2022-08-21T08:05:45;98250.06;;;23.71;79.95
12215;BME280;6170;42.206;24.142;2022-08-21T08:08:12;98255.00;;;23.69;80.73
12215;BME280;6170;42.206;24.142;2022-08-21T08:10:39;98241.88;;;23.85;79.53
12215;BME280;6170;42.206;24.142;2022-08-21T08:13:07;98249.97;;;23.76;80.17
12215;BME280;6170;42.206;24.142;2022-08-21T08:15:35;98242.72;;;23.85;79.64
12215;BME280;6170;42.206;24.142;2022-08-21T08:18:03;98234.63;;;23.61;80.21
12215;BME280;6170;42.206;24.142;2022-08-21T08:20:29;98237.72;;;23.87;80.01
12215;BME280;6170;42.206;24.142;2022-08-21T08:22:56;98238.25;;;23.89;79.68
12215;BME280;6170;42.206;24.142;2022-08-21T08:25:24;98234.72;;;24.02;79.66
12215;BME280;6170;42.206;24.142;2022-08-21T08:27:52;98237.84;;;24.09;79.44
12215;BME280;6170;42.206;24.142;2022-08-21T08:30:21;98245.00;;;24.24;78.36
12215;BME280;6170;42.206;24.142;2022-08-21T08:32:49;98232.16;;;23.92;79.75
12215;BME280;6170;42.206;24.142;2022-08-21T08:35:16;98229.16;;;24.07;78.57
12215;BME280;6170;42.206;24.142;2022-08-21T08:37:43;98209.06;;;23.98;78.15
12215;BME280;6170;42.206;24.142;2022-08-21T08:40:12;98215.66;;;23.97;78.35
12215;BME280;6170;42.206;24.142;2022-08-21T08:42:41;98226.59;;;23.97;78.42
12215;BME280;6170;42.206;24.142;2022-08-21T08:45:11;98216.25;;;24.08;77.64
12215;BME280;6170;42.206;24.142;2022-08-21T08:47:42;98216.06;;;24.04;78.28
12215;BME280;6170;42.206;24.142;2022-08-21T08:50:12;98220.25;;;24.15;77.07
12215;BME280;6170;42.206;24.142;2022-08-21T08:52:47;98213.03;;;24.06;77.32
12215;BME280;6170;42.206;24.142;2022-08-21T08:55:18;98208.72;;;23.86;77.59
12215;BME280;6170;42.206;24.142;2022-08-21T08:57:48;98202.28;;;24.09;77.79
12215;BME280;6170;42.206;24.142;2022-08-21T09:00:18;98195.06;;;24.13;77.95
12215;BME280;6170;42.206;24.142;2022-08-21T09:02:48;98196.81;;;24.23;77.88
12215;BME280;6170;42.206;24.142;2022-08-21T09:05:23;98193.78;;;24.38;77.25
12215;BME280;6170;42.206;24.142;2022-08-21T09:08:06;98196.81;;;24.23;77.20
12215;BME280;6170;42.206;24.142;2022-08-21T09:10:40;98195.28;;;24.31;77.17
12215;BME280;6170;42.206;24.142;2022-08-21T09:13:17;98189.31;;;24.15;76.45
12215;BME280;6170;42.206;24.142;2022-08-21T09:15:53;98192.47;;;24.22;77.44
12215;BME280;6170;42.206;24.142;2022-08-21T09:18:35;98187.06;;;24.44;77.18
12215;BME280;6170;42.206;24.142;2022-08-21T09:21:11;98183.59;;;24.52;76.69
12215;BME280;6170;42.206;24.142;2022-08-21T09:23:49;98179.47;;;24.41;75.98
12215;BME280;6170;42.206;24.142;2022-08-21T09:26:18;98188.00;;;24.26;77.36
12215;BME280;6170;42.206;24.142;2022-08-21T09:28:52;98178.22;;;24.47;77.88
12215;BME280;6170;42.206;24.142;2022-08-21T09:31:23;98183.75;;;24.70;75.24
12215;BME280;6170;42.206;24.142;2022-08-21T09:33:57;98183.94;;;24.37;76.20
12215;BME280;6170;42.206;24.142;2022-08-21T09:36:33;98177.28;;;24.66;76.75
12215;BME280;6170;42.206;24.142;2022-08-21T09:39:03;98171.75;;;24.79;75.98
12215;BME280;6170;42.206;24.142;2022-08-21T09:41:33;98164.88;;;24.82;75.33
12215;BME280;6170;42.206;24.142;2022-08-21T09:44:01;98169.81;;;24.93;75.17
12215;BME280;6170;42.206;24.142;2022-08-21T09:46:28;98169.00;;;25.37;73.81
12215;BME280;6170;42.206;24.142;2022-08-21T09:48:58;98163.34;;;25.12;72.92
12215;BME280;6170;42.206;24.142;2022-08-21T09:51:26;98164.63;;;25.36;73.59
12215;BME280;6170;42.206;24.142;2022-08-21T09:56:28;98165.94;;;25.39;72.39
12215;BME280;6170;42.206;24.142;2022-08-21T09:59:15;98164.00;;;25.92;70.81
12215;BME280;6170;42.206;24.142;2022-08-21T10:01:44;98169.00;;;25.99;71.78
12215;BME280;6170;42.206;24.142;2022-08-21T10:04:13;98172.47;;;26.13;70.28
12215;BME280;6170;42.206;24.142;2022-08-21T10:06:40;98165.78;;;26.36;70.69
12215;BME280;6170;42.206;24.142;2022-08-21T10:09:09;98161.41;;;26.44;69.49
12215;BME280;6170;42.206;24.142;2022-08-21T10:11:37;98160.97;;;26.68;69.53
12215;BME280;6170;42.206;24.142;2022-08-21T10:14:13;98158.41;;;26.89;70.38
12215;BME280;6170;42.206;24.142;2022-08-21T10:16:51;98157.59;;;26.97;70.18
12215;BME280;6170;42.206;24.142;2022-08-21T10:19:30;98148.53;;;27.13;68.96
12215;BME280;6170;42.206;24.142;2022-08-21T10:22:08;98152.06;;;27.22;68.85
12215;BME280;6170;42.206;24.142;2022-08-21T10:24:45;98148.19;;;27.32;67.80
12215;BME280;6170;42.206;24.142;2022-08-21T10:27:22;98149.47;;;27.17;68.49
12215;BME280;6170;42.206;24.142;2022-08-21T10:30:02;98153.41;;;26.99;68.72
12215;BME280;6170;42.206;24.142;2022-08-21T10:32:42;98153.38;;;27.25;66.01
12215;BME280;6170;42.206;24.142;2022-08-21T10:35:13;98155.00;;;27.26;66.06
12215;BME280;6170;42.206;24.142;2022-08-21T10:37:55;98158.06;;;27.33;66.74
12215;BME280;6170;42.206;24.142;2022-08-21T10:40:29;98146.53;;;27.40;66.19
12215;BME280;6170;42.206;24.142;2022-08-21T10:43:07;98145.28;;;27.29;65.76
12215;BME280;6170;42.206;24.142;2022-08-21T10:45:50;98140.63;;;27.12;67.46
12215;BME280;6170;42.206;24.142;2022-08-21T10:48:24;98148.69;;;26.91;66.35
12215;BME280;6170;42.206;24.142;2022-08-21T10:50:54;98146.75;;;27.00;66.82
12215;BME280;6170;42.206;24.142;2022-08-21T10:53:36;98151.78;;;26.90;65.03
12215;BME280;6170;42.206;24.142;2022-08-21T10:56:14;98160.19;;;27.02;65.85
12215;BME280;6170;42.206;24.142;2022-08-21T10:58:49;98151.56;;;26.52;66.31
12215;BME280;6170;42.206;24.142;2022-08-21T11:01:25;98153.03;;;26.75;66.75
12215;BME280;6170;42.206;24.142;2022-08-21T11:04:04;98142.34;;;26.39;66.23
12215;BME280;6170;42.206;24.142;2022-08-21T11:06:37;98143.53;;;26.16;67.21
12215;BME280;6170;42.206;24.142;2022-08-21T11:09:11;98149.34;;;26.06;68.12
12215;BME280;6170;42.206;24.142;2022-08-21T11:11:42;98153.78;;;26.24;68.50
12215;BME280;6170;42.206;24.142;2022-08-21T11:14:21;98155.09;;;26.26;69.37
12215;BME280;6170;42.206;24.142;2022-08-21T11:16:56;98147.88;;;26.08;69.92
12215;BME280;6170;42.206;24.142;2022-08-21T11:19:28;98143.03;;;26.05;69.42
12215;BME280;6170;42.206;24.142;2022-08-21T11:22:06;98142.81;;;25.84;69.80
12215;BME280;6170;42.206;24.142;2022-08-21T11:24:41;98145.03;;;25.74;71.01
12215;BME280;6170;42.206;24.142;2022-08-21T11:27:17;98146.19;;;25.81;70.53
12215;BME280;6170;42.206;24.142;2022-08-21T11:29:49;98145.66;;;25.71;70.22
12215;BME280;6170;42.206;24.142;2022-08-21T11:32:29;98140.19;;;25.71;71.30
12215;BME280;6170;42.206;24.142;2022-08-21T11:35:03;98139.75;;;25.55;71.55
12215;BME280;6170;42.206;24.142;2022-08-21T11:37:46;98142.09;;;25.39;71.50
12215;BME280;6170;42.206;24.142;2022-08-21T11:40:34;98136.22;;;25.55;71.54
12215;BME280;6170;42.206;24.142;2022-08-21T11:43:12;98142.50;;;25.33;72.56
12215;BME280;6170;42.206;24.142;2022-08-21T11:45:45;98124.84;;;25.17;72.33
12215;BME280;6170;42.206;24.142;2022-08-21T11:48:27;98119.34;;;25.17;73.00
12215;BME280;6170;42.206;24.142;2022-08-21T11:50:57;98125.88;;;25.29;73.14
12215;BME280;6170;42.206;24.142;2022-08-21T11:53:32;98126.00;;;25.24;72.30
12215;BME280;6170;42.206;24.142;2022-08-21T11:56:05;98120.09;;;25.31;73.09
12215;BME280;6170;42.206;24.142;2022-08-21T11:58:37;98125.38;;;25.27;72.92
12215;BME280;6170;42.206;24.142;2022-08-21T12:01:09;98119.03;;;25.18;74.71
12215;BME280;6170;42.206;24.142;2022-08-21T12:03:40;98110.03;;;25.18;74.77
12215;BME280;6170;42.206;24.142;2022-08-21T12:06:11;98111.13;;;25.17;75.14
12215;BME280;6170;42.206;24.142;2022-08-21T12:08:41;98114.75;;;25.26;75.62
12215;BME280;6170;42.206;24.142;2022-08-21T12:11:09;98123.00;;;25.34;75.78
12215;BME280;6170;42.206;24.142;2022-08-21T12:13:39;98120.34;;;25.21;75.20
12215;BME280;6170;42.206;24.142;2022-08-21T12:16:09;98129.50;;;25.16;77.21
12215;BME280;6170;42.206;24.142;2022-08-21T12:18:36;98122.59;;;25.19;77.14
12215;BME280;6170;42.206;24.142;2022-08-21T12:21:16;98125.72;;;25.03;75.92
12215;BME280;6170;42.206;24.142;2022-08-21T12:23:48;98124.91;;;25.03;76.46
12215;BME280;6170;42.206;24.142;2022-08-21T12:26:24;98127.03;;;25.06;75.67
12215;BME280;6170;42.206;24.142;2022-08-21T12:29:15;98130.72;;;25.32;76.63
12215;BME280;6170;42.206;24.142;2022-08-21T12:31:57;98129.63;;;25.11;77.55
12215;BME280;6170;42.206;24.142;2022-08-21T12:34:31;98135.34;;;25.23;75.62
12215;BME280;6170;42.206;24.142;2022-08-21T12:37:04;98131.69;;;25.05;76.70
12215;BME280;6170;42.206;24.142;2022-08-21T12:39:35;98136.75;;;25.12;76.82
12215;BME280;6170;42.206;24.142;2022-08-21T12:42:06;98129.28;;;25.04;77.08
12215;BME280;6170;42.206;24.142;2022-08-21T12:44:40;98118.78;;;24.84;77.91
12215;BME280;6170;42.206;24.142;2022-08-21T12:47:13;98108.41;;;24.58;78.19
12215;BME280;6170;42.206;24.142;2022-08-21T12:49:48;98102.50;;;24.65;78.67
12215;BME280;6170;42.206;24.142;2022-08-21T12:52:22;98102.16;;;24.80;79.43
12215;BME280;6170;42.206;24.142;2022-08-21T12:54:51;98097.47;;;24.81;79.56
12215;BME280;6170;42.206;24.142;2022-08-21T12:57:20;98105.34;;;24.74;78.89
12215;BME280;6170;42.206;24.142;2022-08-21T12:59:55;98102.28;;;24.97;79.28
12215;BME280;6170;42.206;24.142;2022-08-21T13:02:26;98098.44;;;24.98;79.33
12215;BME280;6170;42.206;24.142;2022-08-21T13:04:55;98092.59;;;25.14;78.15
12215;BME280;6170;42.206;24.142;2022-08-21T13:07:27;98097.38;;;25.39;78.38
12215;BME280;6170;42.206;24.142;2022-08-21T13:09:58;98099.94;;;25.58;77.97
12215;BME280;6170;42.206;24.142;2022-08-21T13:12:28;98093.53;;;25.71;78.35
12215;BME280;6170;42.206;24.142;2022-08-21T13:14:57;98095.75;;;25.60;75.40